Time;durP1;ratioP1;P1;durP2;ratioP2;P2;SDS_P1;SDS_P2;PMS_P1;PMS_P2;Temp;Humidity;BMP_temperature;BMP_pressure;BME280_temperature;BME280_humidity;BME280_pressure;Samples;Min_cycle;Max_cycle;Signal;HPM_P1;HPM_P2
2023/06/29 00:11:30;;;;;;;17.60;11.63;;;;;;;19.84;73.54;101710.56;7395518;19;20482;-59
2023/06/29 00:14:02;;;;;;;19.75;11.52;;;;;;;19.83;73.76;101715.09;7397625;19;20018;-59
2023/06/29 00:16:30;;;;;;;15.98;10.93;;;;;;;19.93;73.64;101712.38;7396390;19;20039;-60
2023/06/29 00:19:00;;;;;;;16.80;10.60;;;;;;;19.98;73.62;101714.59;7394433;19;20087;-60
2023/06/29 00:21:28;;;;;;;17.00;10.70;;;;;;;19.96;73.68;101707.53;7396938;19;20028;-60
2023/06/29 00:23:55;;;;;;;16.02;10.43;;;;;;;19.93;73.46;101705.13;7392205;19;20035;-58
2023/06/29 00:26:23;;;;;;;16.85;11.45;;;;;;;19.99;73.20;101706.38;7394911;19;20037;-59
2023/06/29 00:28:50;;;;;;;16.58;10.43;;;;;;;20.03;73.37;101706.91;7394427;19;20025;-59
2023/06/29 00:31:18;;;;;;;17.42;11.23;;;;;;;20.00;73.70;101712.63;7394881;19;20046;-59
2023/06/29 00:33:45;;;;;;;19.90;11.45;;;;;;;19.98;73.18;101702.00;7397181;19;20451;-59
2023/06/29 00:36:13;;;;;;;17.00;11.32;;;;;;;19.94;73.65;101704.13;7394164;19;20483;-58
2023/06/29 00:38:40;;;;;;;17.52;11.05;;;;;;;19.93;73.49;101705.13;7395271;19;20506;-58
2023/06/29 00:41:07;;;;;;;17.65;10.90;;;;;;;19.94;73.71;101709.50;7395541;19;20015;-58
2023/06/29 00:43:34;;;;;;;17.65;11.57;;;;;;;19.92;73.71;101705.31;7394240;19;20082;-58
2023/06/29 00:46:07;;;;;;;17.95;11.93;;;;;;;19.92;73.62;101697.22;7393696;19;20015;-58
2023/06/29 00:48:36;;;;;;;17.65;11.10;;;;;;;19.88;74.11;101694.00;7395725;19;20018;-59
2023/06/29 00:51:04;;;;;;;17.83;11.55;;;;;;;19.93;73.92;101688.16;7396329;19;20035;-58
2023/06/29 00:53:31;;;;;;;16.27;10.70;;;;;;;19.93;73.77;101685.47;7394153;19;20037;-58
2023/06/29 00:56:01;;;;;;;18.75;11.98;;;;;;;19.94;73.90;101684.47;7395538;19;20018;-59
2023/06/29 00:58:29;;;;;;;19.08;12.80;;;;;;;19.95;73.73;101678.94;7392992;19;20085;-58
2023/06/29 01:00:57;;;;;;;18.92;12.35;;;;;;;19.91;74.14;101676.69;7397155;19;20039;-70
2023/06/29 01:03:25;;;;;;;17.45;11.10;;;;;;;19.90;74.10;101681.22;7393495;19;20405;-73
2023/06/29 01:05:56;;;;;;;17.38;11.57;;;;;;;19.79;74.69;101680.59;7395828;19;20030;-73
2023/06/29 01:08:31;;;;;;;18.98;11.63;;;;;;;19.72;74.85;101678.50;7392383;19;20022;-72
2023/06/29 01:10:59;;;;;;;15.23;10.48;;;;;;;19.76;74.97;101680.91;7395616;19;20014;-63
2023/06/29 01:13:27;;;;;;;17.60;11.10;;;;;;;19.77;74.65;101682.63;7394117;19;20030;-62
2023/06/29 01:15:55;;;;;;;21.33;13.55;;;;;;;19.80;74.70;101676.91;7395114;19;20038;-62
2023/06/29 01:18:23;;;;;;;18.30;11.90;;;;;;;19.81;74.79;101679.47;7393044;19;20054;-65
2023/06/29 01:20:52;;;;;;;20.73;13.73;;;;;;;19.73;74.50;101679.38;7393613;19;20379;-62
2023/06/29 01:23:29;;;;;;;16.10;12.25;;;;;;;19.78;74.55;101681.59;7393105;19;20015;-59
2023/06/29 01:25:57;;;;;;;16.02;10.75;;;;;;;19.80;74.76;101676.91;7395386;19;20415;-57
2023/06/29 01:28:28;;;;;;;21.10;12.90;;;;;;;19.77;74.51;101672.69;7390472;19;20015;-58
2023/06/29 01:30:56;;;;;;;15.93;11.00;;;;;;;19.80;74.51;101677.75;7392893;19;20018;-59
2023/06/29 01:33:24;;;;;;;19.15;13.10;;;;;;;19.90;74.29;101669.63;7395085;19;20108;-59
2023/06/29 01:36:00;;;;;;;17.67;12.23;;;;;;;19.87;73.85;101669.94;7394606;19;20025;-58
2023/06/29 01:38:33;;;;;;;20.67;13.50;;;;;;;19.85;74.03;101663.88;7390629;19;20194;-58
2023/06/29 01:41:03;;;;;;;18.73;12.63;;;;;;;19.81;74.32;101659.81;7392690;19;20365;-58
2023/06/29 01:43:31;;;;;;;21.55;14.45;;;;;;;19.84;73.28;101659.47;7392201;19;20025;-62
2023/06/29 01:45:58;;;;;;;20.77;12.90;;;;;;;19.82;73.46;101658.81;7394318;19;20339;-60
2023/06/29 01:48:26;;;;;;;18.67;12.35;;;;;;;19.84;73.43;101656.78;7390856;19;20058;-61
2023/06/29 01:50:54;;;;;;;19.73;12.80;;;;;;;19.86;73.47;101655.66;7394001;19;20498;-60
2023/06/29 01:53:21;;;;;;;20.08;12.00;;;;;;;19.91;73.42;101647.13;7393629;19;20025;-63
2023/06/29 01:55:48;;;;;;;17.83;11.88;;;;;;;19.85;73.78;101648.59;7393855;19;20018;-63
2023/06/29 01:58:16;;;;;;;18.75;12.43;;;;;;;19.87;73.60;101651.97;7390966;19;20381;-63
2023/06/29 02:00:43;;;;;;;18.23;11.05;;;;;;;19.88;73.15;101652.81;7394634;19;20021;-63
2023/06/29 02:03:10;;;;;;;17.77;11.50;;;;;;;19.85;73.38;101647.75;7391067;19;20022;-62
2023/06/29 02:05:37;;;;;;;16.02;10.98;;;;;;;19.81;73.37;101644.53;7393897;19;20018;-62
2023/06/29 02:08:05;;;;;;;16.48;10.45;;;;;;;19.83;73.01;101639.81;7390446;19;20507;-63
2023/06/29 02:10:32;;;;;;;18.92;10.73;;;;;;;19.86;72.76;101649.44;7393101;19;20022;-63
2023/06/29 02:12:59;;;;;;;18.42;10.50;;;;;;;19.90;72.86;101648.97;7392895;19;20015;-63
2023/06/29 02:15:26;;;;;;;19.67;11.27;;;;;;;19.88;73.09;101642.03;7391826;19;20419;-63
2023/06/29 02:17:54;;;;;;;16.27;10.35;;;;;;;19.88;72.99;101637.53;7391371;19;20102;-63
2023/06/29 02:20:21;;;;;;;16.17;10.20;;;;;;;19.90;72.88;101648.13;7392389;19;20078;-63
2023/06/29 02:22:48;;;;;;;16.33;10.88;;;;;;;19.87;72.67;101638.50;7391733;19;20019;-63
2023/06/29 02:25:16;;;;;;;16.55;9.75;;;;;;;19.89;72.93;101641.91;7390638;19;20026;-63
2023/06/29 02:27:44;;;;;;;17.02;10.68;;;;;;;19.90;72.68;101635.53;7391339;19;20014;-63
2023/06/29 02:30:11;;;;;;;16.48;10.45;;;;;;;19.89;72.65;101641.06;7391536;19;20123;-63
2023/06/29 02:32:39;;;;;;;15.25;10.50;;;;;;;19.86;72.80;101634.16;7392225;19;20074;-63
2023/06/29 02:35:06;;;;;;;17.80;10.38;;;;;;;19.83;73.15;101634.44;7392803;19;20036;-63
2023/06/29 02:37:33;;;;;;;15.63;10.15;;;;;;;19.79;73.33;101634.91;7389104;19;20091;-64
2023/06/29 02:40:00;;;;;;;17.48;9.95;;;;;;;19.83;73.13;101631.75;7391968;19;20038;-63
2023/06/29 02:42:28;;;;;;;16.90;10.02;;;;;;;19.84;73.26;101627.22;7392493;19;20335;-63
2023/06/29 02:44:55;;;;;;;16.58;10.10;;;;;;;19.88;72.55;101633.97;7391909;19;20351;-63
2023/06/29 02:47:22;;;;;;;13.10;8.93;;;;;;;19.84;73.18;101630.78;7390862;19;20019;-63
2023/06/29 02:49:50;;;;;;;16.52;9.63;;;;;;;19.83;72.88;101622.84;7391491;19;20031;-63
2023/06/29 02:52:17;;;;;;;18.40;10.52;;;;;;;19.74;73.05;101621.94;7391916;19;20086;-63
2023/06/29 02:54:44;;;;;;;17.08;10.27;;;;;;;19.72;72.96;101621.22;7391667;19;20022;-63
2023/06/29 02:57:11;;;;;;;16.20;9.98;;;;;;;19.80;72.83;101631.22;7391132;19;20028;-64
2023/06/29 02:59:38;;;;;;;14.88;9.10;;;;;;;19.78;72.87;101627.84;7390957;19;20479;-63
2023/06/29 03:02:06;;;;;;;14.57;8.63;;;;;;;19.82;72.91;101631.91;7395156;19;20502;-62
2023/06/29 03:04:33;;;;;;;16.50;10.25;;;;;;;19.84;72.61;101622.72;7388617;19;20668;-62
2023/06/29 03:07:00;;;;;;;15.57;9.73;;;;;;;19.86;72.65;101628.78;7390802;19;20494;-62
2023/06/29 03:09:28;;;;;;;16.10;10.05;;;;;;;19.78;72.78;101626.00;7388812;19;20090;-64
2023/06/29 03:11:55;;;;;;;16.30;9.65;;;;;;;19.72;73.03;101616.69;7391510;19;20014;-62
2023/06/29 03:14:22;;;;;;;14.77;9.00;;;;;;;19.78;73.15;101623.31;7391159;19;20033;-64
2023/06/29 03:16:49;;;;;;;17.30;9.77;;;;;;;19.77;72.98;101621.63;7390405;19;20018;-64
2023/06/29 03:19:16;;;;;;;18.13;10.85;;;;;;;19.80;72.71;101624.00;7389953;19;20022;-63
2023/06/29 03:21:44;;;;;;;17.48;10.00;;;;;;;19.86;72.80;101622.56;7389358;19;20014;-63
2023/06/29 03:24:11;;;;;;;18.88;9.88;;;;;;;19.88;72.86;101620.53;7387741;19;20018;-63
2023/06/29 03:26:38;;;;;;;14.43;9.07;;;;;;;19.93;72.22;101623.63;7390753;19;20022;-63
2023/06/29 03:29:06;;;;;;;13.45;9.85;;;;;;;19.90;72.24;101618.56;7389575;19;20029;-65
2023/06/29 03:31:33;;;;;;;17.67;10.10;;;;;;;19.91;72.04;101618.38;7390847;19;20018;-64
2023/06/29 03:34:00;;;;;;;15.25;9.98;;;;;;;19.87;72.08;101618.84;7390671;19;20021;-63
2023/06/29 03:36:28;;;;;;;17.83;9.93;;;;;;;19.89;72.09;101616.88;7387939;19;20479;-64
2023/06/29 03:38:55;;;;;;;15.70;9.30;;;;;;;19.90;71.84;101618.56;7387904;19;20118;-64
2023/06/29 03:41:22;;;;;;;17.80;10.60;;;;;;;19.87;72.25;101610.78;7390358;19;20363;-64
2023/06/29 03:43:49;;;;;;;16.40;10.65;;;;;;;19.90;72.14;101616.72;7388955;19;20524;-64
2023/06/29 03:46:16;;;;;;;15.80;9.38;;;;;;;19.86;72.15;101606.41;7389700;19;20025;-64
2023/06/29 03:48:44;;;;;;;17.20;10.05;;;;;;;19.82;72.20;101613.94;7389148;19;20023;-61
2023/06/29 03:51:11;;;;;;;15.73;10.23;;;;;;;19.83;72.57;101612.09;7388644;19;20046;-61
2023/06/29 03:53:38;;;;;;;16.20;8.98;;;;;;;19.85;72.50;101612.81;7388220;19;20017;-61
2023/06/29 03:56:05;;;;;;;20.20;10.18;;;;;;;19.86;72.35;101604.56;7390324;19;20033;-61
2023/06/29 03:58:32;;;;;;;15.90;9.52;;;;;;;19.85;72.25;101607.44;7389098;19;20022;-60
2023/06/29 04:01:00;;;;;;;15.48;9.27;;;;;;;19.88;72.37;101612.47;7391139;19;20498;-60
2023/06/29 04:03:28;;;;;;;14.60;9.60;;;;;;;19.87;72.67;101606.25;7389471;19;20026;-61
2023/06/29 04:05:55;;;;;;;16.58;9.80;;;;;;;19.88;72.09;101599.91;7388652;19;20408;-61
2023/06/29 04:08:22;;;;;;;18.17;10.13;;;;;;;19.85;72.71;101597.50;7385643;19;20029;-61
2023/06/29 04:10:49;;;;;;;15.18;9.30;;;;;;;19.85;72.40;101604.75;7389671;19;20019;-63
2023/06/29 04:13:16;;;;;;;14.63;9.15;;;;;;;19.85;72.49;101605.56;7389527;19;20019;-63
2023/06/29 04:15:44;;;;;;;18.00;8.85;;;;;;;19.90;72.46;101605.13;7389797;19;20018;-63
2023/06/29 04:18:11;;;;;;;14.80;9.68;;;;;;;19.91;72.38;101604.94;7387686;19;20025;-63
2023/06/29 04:20:38;;;;;;;16.38;10.55;;;;;;;19.92;72.11;101598.59;7388966;19;20018;-63
2023/06/29 04:23:05;;;;;;;16.13;9.88;;;;;;;19.94;72.34;101607.34;7389628;19;20039;-61
2023/06/29 04:25:33;;;;;;;16.13;10.45;;;;;;;19.92;72.26;101601.28;7389280;19;20489;-64
2023/06/29 04:28:00;;;;;;;16.88;9.68;;;;;;;19.94;72.09;101599.28;7385546;19;20011;-64
2023/06/29 04:30:28;;;;;;;17.13;9.68;;;;;;;19.93;72.56;101607.50;7388436;19;20135;-64
2023/06/29 04:32:59;;;;;;;14.07;9.18;;;;;;;19.98;72.05;101605.19;7388921;19;20018;-65
2023/06/29 04:35:27;;;;;;;16.40;10.18;;;;;;;19.99;72.25;101604.19;7389141;19;20027;-63
2023/06/29 04:37:54;;;;;;;15.68;9.52;;;;;;;19.96;72.36;101599.13;7387224;19;20039;-63
2023/06/29 04:40:21;;;;;;;16.95;9.90;;;;;;;19.95;72.28;101597.41;7387801;19;20470;-61
2023/06/29 04:42:49;;;;;;;17.40;10.32;;;;;;;19.99;71.99;101604.19;7389557;19;20017;-61
2023/06/29 04:45:19;;;;;;;17.50;10.10;;;;;;;19.97;72.09;101603.50;7389140;19;20042;-61
2023/06/29 04:47:50;;;;;;;17.67;10.20;;;;;;;19.99;72.43;101598.81;7389319;19;20028;-63
2023/06/29 04:50:25;;;;;;;17.42;10.18;;;;;;;19.95;71.99;101597.41;7395279;19;20621;-62
2023/06/29 04:52:53;;;;;;;16.77;10.65;;;;;;;19.96;71.99;101601.81;7394688;19;20026;-63
2023/06/29 04:55:22;;;;;;;15.65;9.32;;;;;;;19.98;72.18;101593.59;7394186;19;20014;-63
2023/06/29 04:57:49;;;;;;;18.90;10.20;;;;;;;19.95;72.19;101589.34;7392242;19;20019;-62
2023/06/29 05:00:16;;;;;;;17.02;10.13;;;;;;;20.00;71.70;101587.06;7393244;19;20019;-62
2023/06/29 05:02:43;;;;;;;17.90;10.82;;;;;;;19.95;72.09;101589.34;7395388;19;20022;-62
2023/06/29 05:05:11;;;;;;;23.73;11.52;;;;;;;19.99;71.82;101585.34;7392972;19;20019;-63
2023/06/29 05:07:38;;;;;;;15.90;9.70;;;;;;;20.03;71.96;101585.91;7393509;19;20355;-61
2023/06/29 05:10:06;;;;;;;19.60;11.20;;;;;;;20.10;72.12;101592.34;7394845;19;20372;-61
2023/06/29 05:12:33;;;;;;;17.92;10.43;;;;;;;20.07;72.20;101588.16;7395400;19;20475;-62
2023/06/29 05:15:02;;;;;;;18.33;9.02;;;;;;;20.13;71.82;101586.66;7394925;19;20044;-60
2023/06/29 05:17:29;;;;;;;18.05;9.98;;;;;;;20.15;71.44;101580.16;7392034;19;20019;-62
2023/06/29 05:19:58;;;;;;;22.02;11.05;;;;;;;20.15;71.63;101584.69;7392498;19;20337;-60
2023/06/29 05:22:25;;;;;;;17.67;10.48;;;;;;;20.17;71.47;101588.88;7396509;19;20026;-62
2023/06/29 05:24:53;;;;;;;19.63;9.60;;;;;;;20.21;71.65;101590.25;7392780;19;20026;-61
2023/06/29 05:27:20;;;;;;;15.70;9.40;;;;;;;20.21;71.68;101590.25;7393321;19;20019;-63
2023/06/29 05:29:47;;;;;;;18.75;10.43;;;;;;;20.24;71.27;101580.22;7393930;19;20029;-64
2023/06/29 05:32:14;;;;;;;16.92;10.10;;;;;;;20.30;71.80;101575.06;7392969;19;20015;-63
2023/06/29 05:34:42;;;;;;;16.48;9.55;;;;;;;20.33;71.48;101572.03;7393927;19;20022;-64
2023/06/29 05:37:09;;;;;;;17.48;10.35;;;;;;;20.31;71.30;101570.50;7393143;19;20015;-63
2023/06/29 05:39:36;;;;;;;16.75;10.23;;;;;;;20.32;70.89;101566.81;7393691;19;20019;-62
2023/06/29 05:42:04;;;;;;;15.15;9.75;;;;;;;20.34;71.16;101567.53;7394363;19;20010;-60
2023/06/29 05:44:31;;;;;;;15.10;9.70;;;;;;;20.33;70.46;101561.25;7391187;19;20039;-63
2023/06/29 05:46:59;;;;;;;17.27;10.75;;;;;;;20.37;70.72;101567.19;7392776;19;20082;-63
2023/06/29 05:49:26;;;;;;;16.90;10.02;;;;;;;20.34;70.90;101568.34;7391417;19;20543;-65
2023/06/29 05:51:53;;;;;;;18.38;10.77;;;;;;;20.33;70.75;101565.81;7393686;19;20018;-65
2023/06/29 05:54:20;;;;;;;20.33;10.90;;;;;;;20.40;70.63;101570.41;7393488;19;20049;-66
2023/06/29 05:56:47;;;;;;;15.93;10.48;;;;;;;20.39;70.43;101554.44;7391051;19;20018;-65
2023/06/29 05:59:15;;;;;;;16.40;10.15;;;;;;;20.38;70.91;101563.50;7391648;19;20015;-66
2023/06/29 06:01:42;;;;;;;17.23;10.13;;;;;;;20.42;70.72;101551.44;7395647;19;20018;-66
2023/06/29 06:04:09;;;;;;;19.60;10.65;;;;;;;20.39;70.46;101557.13;7392931;19;20042;-67
2023/06/29 06:06:39;;;;;;;14.68;9.60;;;;;;;20.45;70.42;101559.16;7392872;19;20011;-66
2023/06/29 06:09:06;;;;;;;20.00;11.05;;;;;;;20.46;70.38;101555.50;7391674;19;20064;-60
2023/06/29 06:11:34;;;;;;;19.85;10.90;;;;;;;20.51;70.02;101560.44;7392855;19;20034;-60
2023/06/29 06:14:01;;;;;;;18.65;10.30;;;;;;;20.55;69.56;101564.50;7393236;19;20584;-63
2023/06/29 06:16:28;;;;;;;16.58;9.85;;;;;;;20.63;69.07;101560.00;7390057;19;20031;-66
2023/06/29 06:18:56;;;;;;;17.75;10.65;;;;;;;20.69;68.84;101551.28;7391639;19;20050;-66
2023/06/29 06:21:26;;;;;;;17.45;10.57;;;;;;;20.72;68.61;101549.25;7390811;19;20026;-68
2023/06/29 06:23:54;;;;;;;18.23;10.20;;;;;;;20.80;68.46;101547.47;7392145;19;20032;-61
2023/06/29 06:26:21;;;;;;;19.95;10.25;;;;;;;20.90;68.51;101552.72;7392530;19;20010;-61
2023/06/29 06:28:48;;;;;;;19.35;10.55;;;;;;;20.93;67.95;101552.41;7391698;19;20015;-62
2023/06/29 06:31:16;;;;;;;19.63;10.95;;;;;;;20.98;67.53;101554.63;7392420;19;20019;-61
2023/06/29 06:33:59;;;;;;;18.17;10.88;;;;;;;21.06;67.34;101551.97;7392986;19;20486;-60
2023/06/29 06:36:29;;;;;;;19.95;10.88;;;;;;;21.11;67.40;101555.88;7391899;19;20073;-64
2023/06/29 06:38:57;;;;;;;17.58;9.70;;;;;;;21.16;66.76;101549.97;7392339;19;20021;-63
2023/06/29 06:41:24;;;;;;;20.60;10.48;;;;;;;21.20;66.91;101545.13;7392409;19;20019;-66
2023/06/29 06:43:51;;;;;;;18.50;10.82;;;;;;;21.15;67.06;101541.06;7392070;19;20027;-62
2023/06/29 06:46:19;;;;;;;18.63;10.73;;;;;;;21.19;66.63;101552.34;7390554;19;20020;-64
2023/06/29 06:48:47;;;;;;;19.30;11.55;;;;;;;21.11;67.19;101553.19;7391757;19;20038;-59
2023/06/29 06:51:15;;;;;;;21.58;11.60;;;;;;;21.06;67.33;101552.81;7390691;19;20018;-61
2023/06/29 06:53:42;;;;;;;20.75;11.20;;;;;;;21.03;67.83;101541.53;7392206;19;20026;-62
2023/06/29 06:56:10;;;;;;;17.73;11.18;;;;;;;21.03;67.39;101553.16;7391587;19;20014;-61
2023/06/29 06:58:37;;;;;;;19.98;11.18;;;;;;;21.02;67.42;101547.91;7391251;19;20022;-61
2023/06/29 07:01:04;;;;;;;19.13;11.30;;;;;;;21.04;67.36;101544.06;7393379;19;20033;-61
2023/06/29 07:03:31;;;;;;;18.20;10.75;;;;;;;21.07;67.36;101551.81;7390303;19;20014;-61
2023/06/29 07:05:59;;;;;;;19.90;10.85;;;;;;;21.15;66.83;101551.00;7390318;19;20117;-61
2023/06/29 07:08:27;;;;;;;18.60;11.40;;;;;;;21.19;66.86;101549.66;7388964;19;20584;-61
2023/06/29 07:10:54;;;;;;;15.77;10.23;;;;;;;21.23;67.04;101548.34;7389728;19;20018;-61
2023/06/29 07:13:24;;;;;;;19.38;11.70;;;;;;;21.25;66.70;101553.53;7390954;19;20022;-61
2023/06/29 07:15:51;;;;;;;18.88;10.57;;;;;;;21.31;66.60;101548.34;7391033;19;20019;-62
2023/06/29 07:18:18;;;;;;;16.13;10.38;;;;;;;21.40;66.51;101546.53;7388301;19;20035;-61
2023/06/29 07:20:46;;;;;;;15.50;8.88;;;;;;;21.50;65.88;101554.50;7390445;19;20015;-61
2023/06/29 07:23:16;;;;;;;21.73;11.02;;;;;;;21.52;66.05;101537.16;7391234;19;20025;-61
2023/06/29 07:25:46;;;;;;;18.13;10.38;;;;;;;21.41;65.57;101542.88;7389262;19;20021;-62
2023/06/29 07:28:13;;;;;;;17.35;10.00;;;;;;;21.40;66.00;101543.84;7387971;19;20374;-59
2023/06/29 07:30:40;;;;;;;18.05;10.55;;;;;;;21.38;65.86;101537.81;7390046;19;20023;-61
2023/06/29 07:33:07;;;;;;;19.55;9.95;;;;;;;21.44;65.95;101529.03;7390571;19;20038;-59
2023/06/29 07:35:35;;;;;;;19.30;11.27;;;;;;;21.50;65.25;101528.38;7390057;19;20010;-60
2023/06/29 07:38:02;;;;;;;19.48;10.75;;;;;;;21.56;65.48;101522.34;7388471;19;20028;-60
2023/06/29 07:40:29;;;;;;;20.58;10.95;;;;;;;21.54;65.63;101523.50;7390146;19;20059;-60
2023/06/29 07:42:56;;;;;;;19.77;12.50;;;;;;;21.45;65.77;101514.56;7390090;19;20022;-60
2023/06/29 07:45:24;;;;;;;22.27;12.10;;;;;;;21.41;66.09;101515.91;7388933;19;20082;-61
2023/06/29 07:47:52;;;;;;;16.85;11.65;;;;;;;21.49;66.14;101517.78;7388871;19;20021;-60
2023/06/29 07:50:19;;;;;;;21.23;11.43;;;;;;;21.57;66.29;101515.94;7390079;19;20018;-61
2023/06/29 07:52:47;;;;;;;21.55;11.25;;;;;;;21.67;66.71;101510.38;7389828;19;20022;-61
2023/06/29 07:55:14;;;;;;;19.65;11.00;;;;;;;21.73;66.14;101508.88;7389348;19;20017;-61
2023/06/29 07:57:41;;;;;;;20.95;12.05;;;;;;;21.76;66.22;101509.38;7388924;19;20019;-61
2023/06/29 08:00:12;;;;;;;17.13;11.25;;;;;;;21.83;65.95;101514.97;7387331;19;20022;-61
2023/06/29 08:02:40;;;;;;;19.27;11.27;;;;;;;21.82;65.55;101513.25;7392742;19;20022;-61
2023/06/29 08:05:08;;;;;;;18.90;10.23;;;;;;;21.96;64.60;101511.75;7388644;19;20059;-61
2023/06/29 08:07:38;;;;;;;17.95;11.20;;;;;;;22.09;63.92;101518.31;7387402;19;20025;-62
2023/06/29 08:10:06;;;;;;;20.02;11.15;;;;;;;22.19;63.72;101506.53;7388554;19;20385;-60
2023/06/29 08:12:33;;;;;;;18.55;11.23;;;;;;;22.18;63.61;101512.94;7389923;19;20017;-60
2023/06/29 08:15:00;;;;;;;21.55;10.77;;;;;;;22.17;63.36;101508.53;7388883;19;20019;-62
2023/06/29 08:17:29;;;;;;;23.23;11.23;;;;;;;22.20;63.33;101506.34;7388360;19;20018;-61
2023/06/29 08:19:57;;;;;;;19.67;11.90;;;;;;;22.12;63.97;101503.63;7388868;19;20043;-61
2023/06/29 08:22:24;;;;;;;15.50;9.98;;;;;;;22.10;64.22;101508.38;7390704;19;20086;-61
2023/06/29 08:24:51;;;;;;;19.83;11.30;;;;;;;22.01;64.47;101507.50;7393790;19;20035;-62
2023/06/29 08:27:19;;;;;;;19.55;11.02;;;;;;;21.95;64.64;101500.13;7394953;19;20010;-61
2023/06/29 08:29:47;;;;;;;21.02;12.40;;;;;;;21.90;64.85;101508.72;7395623;19;20467;-62
2023/06/29 08:32:14;;;;;;;18.48;10.15;;;;;;;21.88;64.87;101509.88;7396036;19;20497;-60
2023/06/29 08:34:42;;;;;;;20.05;11.35;;;;;;;21.89;65.28;101511.56;7394521;19;20032;-60
2023/06/29 08:37:09;;;;;;;17.75;10.93;;;;;;;21.85;65.68;101502.97;7394492;19;20019;-59
2023/06/29 08:39:36;;;;;;;16.02;11.27;;;;;;;21.88;65.37;101504.50;7395533;19;20018;-60
2023/06/29 08:42:04;;;;;;;20.10;11.90;;;;;;;21.90;65.03;101506.03;7396026;19;20056;-60
2023/06/29 08:44:34;;;;;;;18.55;10.88;;;;;;;21.98;64.80;101502.47;7395210;19;20507;-60
2023/06/29 08:47:02;;;;;;;22.40;12.23;;;;;;;22.09;64.37;101503.97;7392188;19;20389;-59
2023/06/29 08:49:33;;;;;;;19.40;12.35;;;;;;;22.17;64.00;101501.31;7394996;19;20019;-60
2023/06/29 08:52:03;;;;;;;21.85;12.55;;;;;;;22.18;63.89;101500.28;7394283;19;20369;-61
2023/06/29 08:54:32;;;;;;;20.50;12.18;;;;;;;22.10;64.05;101503.81;7396376;19;20479;-59
2023/06/29 08:57:01;;;;;;;18.27;10.82;;;;;;;22.02;63.92;101506.53;7394369;19;20041;-60
2023/06/29 08:59:28;;;;;;;18.92;11.13;;;;;;;22.08;64.29;101505.81;7394973;19;20022;-59
2023/06/29 09:01:58;;;;;;;21.20;12.43;;;;;;;22.10;64.23;101492.19;7398495;19;20029;-60
2023/06/29 09:04:25;;;;;;;21.05;11.90;;;;;;;22.12;63.69;101492.84;7395049;19;20025;-60
2023/06/29 09:06:58;;;;;;;16.38;10.65;;;;;;;22.07;63.72;101496.06;7394032;19;20470;-63
2023/06/29 09:09:26;;;;;;;21.55;12.10;;;;;;;22.02;63.86;101498.44;7397835;19;20022;-60
2023/06/29 09:11:54;;;;;;;21.33;11.43;;;;;;;22.03;64.15;101499.28;7397175;19;20011;-60
2023/06/29 09:14:22;;;;;;;20.95;12.20;;;;;;;22.01;64.29;101494.03;7395291;19;20014;-60
2023/06/29 09:16:52;;;;;;;19.88;11.32;;;;;;;22.03;63.43;101492.00;7394463;19;20042;-59
2023/06/29 09:19:38;;;;;;;18.65;11.43;;;;;;;22.07;63.96;101500.59;7395862;19;20316;-62
2023/06/29 09:22:05;;;;;;;22.67;12.07;;;;;;;22.07;63.84;101497.91;7397719;19;20018;-61
2023/06/29 09:24:33;;;;;;;18.38;10.27;;;;;;;22.08;63.89;101492.34;7393922;19;20018;-60
2023/06/29 09:27:01;;;;;;;17.77;11.10;;;;;;;22.19;63.41;101499.28;7394546;19;20042;-62
2023/06/29 09:29:28;;;;;;;16.13;10.10;;;;;;;22.25;63.03;101490.50;7392235;19;20536;-61
2023/06/29 09:31:56;;;;;;;17.67;11.65;;;;;;;22.26;62.77;101494.88;7394548;19;20039;-61
2023/06/29 09:34:26;;;;;;;17.67;11.07;;;;;;;22.29;62.94;101497.25;7393732;19;20014;-61
2023/06/29 09:36:55;;;;;;;18.20;10.50;;;;;;;22.31;62.69;101497.06;7395667;19;20023;-61
2023/06/29 09:39:22;;;;;;;19.58;11.18;;;;;;;22.34;62.82;101488.63;7393490;19;20090;-61
2023/06/29 09:41:53;;;;;;;21.77;11.90;;;;;;;22.39;62.55;101484.38;7394531;19;20038;-61
2023/06/29 09:44:23;;;;;;;21.25;12.82;;;;;;;22.34;62.40;101485.94;7394053;19;20015;-61
2023/06/29 09:46:52;;;;;;;21.17;12.50;;;;;;;22.41;62.43;101489.63;7393327;19;20158;-60
2023/06/29 09:49:22;;;;;;;19.70;12.18;;;;;;;22.44;62.46;101488.44;7393697;19;20479;-61
2023/06/29 09:52:02;;;;;;;20.80;11.98;;;;;;;22.56;62.00;101487.88;7392401;19;20408;-61
2023/06/29 09:54:34;;;;;;;18.13;11.05;;;;;;;22.66;62.36;101484.13;7392193;19;20010;-60
2023/06/29 09:57:02;;;;;;;19.88;11.60;;;;;;;22.66;62.01;101487.69;7390627;19;20019;-61
2023/06/29 09:59:40;;;;;;;18.13;11.35;;;;;;;22.69;61.79;101486.50;7393239;19;20018;-61
2023/06/29 10:02:08;;;;;;;22.23;11.88;;;;;;;22.67;62.35;101485.84;7391714;19;20018;-60
2023/06/29 10:04:36;;;;;;;18.40;12.32;;;;;;;22.67;62.11;101488.53;7391684;19;20477;-60
2023/06/29 10:07:22;;;;;;;18.92;12.93;;;;;;;22.77;61.39;101484.59;7390722;19;20015;-60
2023/06/29 10:09:49;;;;;;;20.20;10.80;;;;;;;22.79;61.84;101484.44;7392973;19;20015;-60
2023/06/29 10:12:19;;;;;;;15.55;9.77;;;;;;;22.92;61.52;101479.31;7395287;19;20029;-60
2023/06/29 10:14:48;;;;;;;19.80;12.25;;;;;;;22.97;61.33;101474.25;7393804;19;20011;-61
2023/06/29 10:17:43;;;;;;;18.85;11.38;;;;;;;23.00;61.08;101476.59;7391891;19;20050;-61
2023/06/29 10:20:13;;;;;;;17.20;11.38;;;;;;;22.92;61.34;101473.94;7392849;19;20014;-62
2023/06/29 10:22:42;;;;;;;19.33;11.63;;;;;;;22.91;61.65;101472.25;7392603;19;20018;-62
2023/06/29 10:25:17;;;;;;;20.30;11.57;;;;;;;22.91;61.60;101476.78;7391673;19;20019;-61
2023/06/29 10:27:46;;;;;;;21.73;12.27;;;;;;;22.83;61.67;101465.00;7394155;19;20042;-61
2023/06/29 10:30:21;;;;;;;19.52;11.75;;;;;;;22.85;61.35;101464.81;7390468;19;20026;-61
2023/06/29 10:32:50;;;;;;;18.65;10.88;;;;;;;22.85;61.43;101460.25;7392705;19;20092;-61
2023/06/29 10:35:17;;;;;;;20.10;12.73;;;;;;;22.85;61.68;101465.66;7392146;19;20139;-60
2023/06/29 10:37:47;;;;;;;19.77;11.52;;;;;;;22.84;61.50;101460.44;7388986;19;20613;-60
2023/06/29 10:40:24;;;;;;;22.58;12.90;;;;;;;22.81;61.55;101458.91;7390839;19;20018;-61
2023/06/29 10:42:54;;;;;;;24.08;12.40;;;;;;;22.82;61.77;101465.19;7390143;19;20459;-61
2023/06/29 10:45:21;;;;;;;18.90;11.40;;;;;;;22.86;61.33;101456.53;7387790;19;20110;-61
2023/06/29 10:47:57;;;;;;;22.00;12.13;;;;;;;22.94;61.48;101452.16;7390293;19;20025;-59
2023/06/29 10:50:51;;;;;;;23.73;12.45;;;;;;;22.98;61.03;101451.63;7391238;19;20029;-60
2023/06/29 10:53:20;;;;;;;22.77;12.65;;;;;;;22.95;61.68;101449.25;7391572;19;20018;-60
2023/06/29 10:55:51;;;;;;;20.48;11.73;;;;;;;23.01;61.61;101447.69;7391395;19;20015;-60
2023/06/29 10:58:22;;;;;;;19.35;11.55;;;;;;;23.13;61.26;101448.16;7389507;19;20022;-61
2023/06/29 11:00:53;;;;;;;19.00;11.45;;;;;;;23.22;60.90;101447.09;7391526;19;20019;-61
2023/06/29 11:03:22;;;;;;;19.23;12.13;;;;;;;23.22;60.61;101444.38;7390963;19;20025;-61
2023/06/29 11:05:54;;;;;;;19.73;11.52;;;;;;;23.30;60.23;101442.44;7390216;19;20074;-61
2023/06/29 11:08:22;;;;;;;21.63;12.38;;;;;;;23.32;60.23;101437.72;7390897;19;20029;-59
2023/06/29 11:10:50;;;;;;;20.42;12.07;;;;;;;23.53;60.06;101441.59;7390721;19;20031;-58
2023/06/29 11:13:19;;;;;;;19.33;12.93;;;;;;;23.78;59.35;101439.59;7391831;19;20460;-58
2023/06/29 11:15:55;;;;;;;20.02;12.32;;;;;;;23.84;58.68;101436.97;7389473;19;20027;-58
2023/06/29 11:18:22;;;;;;;23.70;13.30;;;;;;;23.87;58.76;101434.94;7384707;19;20019;-57
2023/06/29 11:20:50;;;;;;;22.77;12.20;;;;;;;23.77;59.32;101441.44;7389404;19;20024;-58
2023/06/29 11:23:17;;;;;;;20.95;13.45;;;;;;;23.65;59.01;101437.44;7391404;19;20022;-58
2023/06/29 11:25:44;;;;;;;22.88;14.32;;;;;;;23.59;58.35;101447.16;7390846;19;20019;-58
2023/06/29 11:28:14;;;;;;;24.70;15.25;;;;;;;23.56;58.17;101439.38;7394338;19;20022;-58